sensor_id;sensor_type;location;lat;lon;timestamp;pressure;altitude;pressure_sealevel;temperature;humidity
5691;BME280;2870;42.680;23.364;2023-09-30T00:00:15;95539.63;;;17.94;68.14
5691;BME280;2870;42.680;23.364;2023-09-30T00:02:42;95547.09;;;17.99;70.19
5691;BME280;2870;42.680;23.364;2023-09-30T00:05:09;95534.81;;;17.97;68.75
5691;BME280;2870;42.680;23.364;2023-09-30T00:07:38;95537.97;;;17.91;69.24
5691;BME280;2870;42.680;23.364;2023-09-30T00:10:05;95539.00;;;18.06;69.14
5691;BME280;2870;42.680;23.364;2023-09-30T00:12:32;95533.94;;;17.94;67.21
5691;BME280;2870;42.680;23.364;2023-09-30T00:14:59;95529.47;;;17.91;66.82
5691;BME280;2870;42.680;23.364;2023-09-30T00:17:26;95540.81;;;17.91;67.70
5691;BME280;2870;42.680;23.364;2023-09-30T00:19:53;95532.16;;;17.89;67.78
5691;BME280;2870;42.680;23.364;2023-09-30T00:22:19;95542.59;;;17.96;68.42
5691;BME280;2870;42.680;23.364;2023-09-30T00:24:48;95536.91;;;17.96;67.57
5691;BME280;2870;42.680;23.364;2023-09-30T00:27:14;95533.03;;;17.92;67.82
5691;BME280;2870;42.680;23.364;2023-09-30T00:29:41;95536.47;;;17.90;67.83
5691;BME280;2870;42.680;23.364;2023-09-30T00:32:08;95533.22;;;17.84;67.93
5691;BME280;2870;42.680;23.364;2023-09-30T00:34:35;95523.94;;;17.93;68.25
5691;BME280;2870;42.680;23.364;2023-09-30T00:37:02;95529.31;;;17.89;67.50
5691;BME280;2870;42.680;23.364;2023-09-30T00:39:29;95526.31;;;17.97;67.90
5691;BME280;2870;42.680;23.364;2023-09-30T00:41:57;95534.06;;;18.06;67.40
5691;BME280;2870;42.680;23.364;2023-09-30T00:44:25;95534.38;;;18.00;67.96
5691;BME280;2870;42.680;23.364;2023-09-30T00:46:52;95527.53;;;17.94;68.26
5691;BME280;2870;42.680;23.364;2023-09-30T00:49:21;95530.66;;;17.88;68.05
5691;BME280;2870;42.680;23.364;2023-09-30T00:51:49;95527.53;;;17.84;67.98
5691;BME280;2870;42.680;23.364;2023-09-30T00:54:17;95525.25;;;17.92;67.88
5691;BME280;2870;42.680;23.364;2023-09-30T00:56:46;95523.34;;;17.95;68.80
5691;BME280;2870;42.680;23.364;2023-09-30T00:59:15;95528.09;;;17.92;68.99
5691;BME280;2870;42.680;23.364;2023-09-30T01:01:42;95518.09;;;17.91;68.45
5691;BME280;2870;42.680;23.364;2023-09-30T01:04:10;95523.50;;;17.87;68.20
5691;BME280;2870;42.680;23.364;2023-09-30T01:06:37;95520.34;;;17.93;68.69
5691;BME280;2870;42.680;23.364;2023-09-30T01:09:04;95525.56;;;17.96;68.94
5691;BME280;2870;42.680;23.364;2023-09-30T01:11:31;95525.56;;;17.96;69.33
5691;BME280;2870;42.680;23.364;2023-09-30T01:13:58;95524.38;;;17.90;67.52
5691;BME280;2870;42.680;23.364;2023-09-30T01:16:26;95516.91;;;17.94;67.68
5691;BME280;2870;42.680;23.364;2023-09-30T01:18:53;95518.84;;;18.01;67.12
5691;BME280;2870;42.680;23.364;2023-09-30T01:21:20;95517.22;;;17.98;67.24
5691;BME280;2870;42.680;23.364;2023-09-30T01:23:48;95520.94;;;18.01;68.06
5691;BME280;2870;42.680;23.364;2023-09-30T01:26:15;95518.22;;;18.03;68.35
5691;BME280;2870;42.680;23.364;2023-09-30T01:28:42;95521.38;;;17.97;67.48
5691;BME280;2870;42.680;23.364;2023-09-30T01:31:09;95526.47;;;17.89;67.43
5691;BME280;2870;42.680;23.364;2023-09-30T01:33:36;95524.94;;;18.17;66.93
5691;BME280;2870;42.680;23.364;2023-09-30T01:36:04;95520.88;;;18.20;67.21
5691;BME280;2870;42.680;23.364;2023-09-30T01:38:30;95514.31;;;18.18;66.83
5691;BME280;2870;42.680;23.364;2023-09-30T01:40:59;95525.56;;;17.96;68.19
5691;BME280;2870;42.680;23.364;2023-09-30T01:43:25;95518.41;;;17.86;67.71
5691;BME280;2870;42.680;23.364;2023-09-30T01:45:52;95524.56;;;17.72;67.83
5691;BME280;2870;42.680;23.364;2023-09-30T01:48:19;95517.69;;;17.76;68.29
5691;BME280;2870;42.680;23.364;2023-09-30T01:50:46;95510.97;;;17.61;67.79
5691;BME280;2870;42.680;23.364;2023-09-30T01:53:13;95510.22;;;17.70;67.39
5691;BME280;2870;42.680;23.364;2023-09-30T01:55:40;95514.69;;;17.73;66.74
5691;BME280;2870;42.680;23.364;2023-09-30T01:58:08;95510.81;;;17.79;66.76
5691;BME280;2870;42.680;23.364;2023-09-30T02:03:08;95511.41;;;17.67;66.84
5691;BME280;2870;42.680;23.364;2023-09-30T02:05:35;95512.63;;;17.64;67.70
5691;BME280;2870;42.680;23.364;2023-09-30T02:08:04;95509.16;;;17.66;68.12
5691;BME280;2870;42.680;23.364;2023-09-30T02:10:31;95506.63;;;17.60;68.81
5691;BME280;2870;42.680;23.364;2023-09-30T02:12:58;95513.78;;;17.52;68.10
5691;BME280;2870;42.680;23.364;2023-09-30T02:15:27;95509.78;;;17.55;68.14
5691;BME280;2870;42.680;23.364;2023-09-30T02:17:53;95510.81;;;17.49;67.95
5691;BME280;2870;42.680;23.364;2023-09-30T02:20:20;95508.13;;;17.52;67.77
5691;BME280;2870;42.680;23.364;2023-09-30T02:22:51;95517.06;;;17.58;67.00
5691;BME280;2870;42.680;23.364;2023-09-30T02:25:18;95509.75;;;17.35;68.05
5691;BME280;2870;42.680;23.364;2023-09-30T02:27:44;95511.25;;;17.17;68.65
5691;BME280;2870;42.680;23.364;2023-09-30T02:30:12;95516.03;;;17.24;69.13
5691;BME280;2870;42.680;23.364;2023-09-30T02:32:40;95506.16;;;17.06;68.47
5691;BME280;2870;42.680;23.364;2023-09-30T02:35:08;95513.16;;;16.95;69.94
5691;BME280;2870;42.680;23.364;2023-09-30T02:37:36;95507.31;;;16.83;68.95
5691;BME280;2870;42.680;23.364;2023-09-30T02:40:04;95516.41;;;16.72;69.01
5691;BME280;2870;42.680;23.364;2023-09-30T02:42:34;95513.53;;;16.62;69.44
5691;BME280;2870;42.680;23.364;2023-09-30T02:45:02;95508.50;;;16.34;69.69
5691;BME280;2870;42.680;23.364;2023-09-30T02:47:29;95514.19;;;16.43;70.54
5691;BME280;2870;42.680;23.364;2023-09-30T02:49:58;95510.41;;;16.31;70.01
5691;BME280;2870;42.680;23.364;2023-09-30T02:52:25;95511.91;;;16.32;70.67
5691;BME280;2870;42.680;23.364;2023-09-30T02:54:52;95511.63;;;16.28;71.49
5691;BME280;2870;42.680;23.364;2023-09-30T02:57:19;95510.38;;;16.22;71.64
5691;BME280;2870;42.680;23.364;2023-09-30T02:59:47;95511.38;;;16.16;71.73
5691;BME280;2870;42.680;23.364;2023-09-30T03:02:13;95512.56;;;16.13;71.74
5691;BME280;2870;42.680;23.364;2023-09-30T03:04:44;95516.31;;;16.16;71.83
5691;BME280;2870;42.680;23.364;2023-09-30T03:07:13;95513.94;;;16.22;72.77
5691;BME280;2870;42.680;23.364;2023-09-30T03:09:40;95514.88;;;16.25;71.70
5691;BME280;2870;42.680;23.364;2023-09-30T03:12:07;95512.16;;;16.17;72.47
5691;BME280;2870;42.680;23.364;2023-09-30T03:14:34;95519.13;;;16.16;72.99
5691;BME280;2870;42.680;23.364;2023-09-30T03:17:01;95513.19;;;16.22;72.89
5691;BME280;2870;42.680;23.364;2023-09-30T03:19:28;95513.78;;;16.20;71.73
5691;BME280;2870;42.680;23.364;2023-09-30T03:21:55;95515.56;;;16.15;72.47
5691;BME280;2870;42.680;23.364;2023-09-30T03:24:24;95514.81;;;16.15;72.44
5691;BME280;2870;42.680;23.364;2023-09-30T03:26:52;95519.72;;;16.14;70.92
5691;BME280;2870;42.680;23.364;2023-09-30T03:29:19;95520.66;;;16.17;71.98
5691;BME280;2870;42.680;23.364;2023-09-30T03:31:46;95519.13;;;16.16;71.63
5691;BME280;2870;42.680;23.364;2023-09-30T03:34:12;95515.00;;;16.17;72.97
5691;BME280;2870;42.680;23.364;2023-09-30T03:36:41;95510.34;;;16.12;71.58
5691;BME280;2870;42.680;23.364;2023-09-30T03:39:08;95511.66;;;16.11;71.63
5691;BME280;2870;42.680;23.364;2023-09-30T03:41:41;95506.31;;;16.15;71.99
5691;BME280;2870;42.680;23.364;2023-09-30T03:44:08;95515.41;;;16.13;71.94
5691;BME280;2870;42.680;23.364;2023-09-30T03:46:35;95515.69;;;16.08;71.71
5691;BME280;2870;42.680;23.364;2023-09-30T03:49:02;95513.88;;;16.03;71.91
5691;BME280;2870;42.680;23.364;2023-09-30T03:51:29;95511.19;;;16.05;73.05
5691;BME280;2870;42.680;23.364;2023-09-30T03:53:55;95512.03;;;15.98;72.05
5691;BME280;2870;42.680;23.364;2023-09-30T03:56:22;95508.88;;;15.94;71.91
5691;BME280;2870;42.680;23.364;2023-09-30T03:58:50;95509.47;;;15.92;72.32
5691;BME280;2870;42.680;23.364;2023-09-30T04:01:18;95514.41;;;15.92;74.08
5691;BME280;2870;42.680;23.364;2023-09-30T04:03:45;95511.41;;;15.89;73.30
5691;BME280;2870;42.680;23.364;2023-09-30T04:06:12;95518.16;;;15.94;74.02
5691;BME280;2870;42.680;23.364;2023-09-30T04:08:39;95520.59;;;15.80;73.51
5691;BME280;2870;42.680;23.364;2023-09-30T04:11:06;95518.97;;;15.87;73.04
5691;BME280;2870;42.680;23.364;2023-09-30T04:13:33;95524.97;;;15.91;73.52
5691;BME280;2870;42.680;23.364;2023-09-30T04:16:01;95527.66;;;15.89;72.57
5691;BME280;2870;42.680;23.364;2023-09-30T04:18:28;95525.72;;;15.92;71.74
5691;BME280;2870;42.680;23.364;2023-09-30T04:20:55;95524.09;;;15.71;71.06
5691;BME280;2870;42.680;23.364;2023-09-30T04:23:22;95528.59;;;15.74;71.41
5691;BME280;2870;42.680;23.364;2023-09-30T04:25:49;95527.69;;;15.54;71.48
5691;BME280;2870;42.680;23.364;2023-09-30T04:28:16;95533.34;;;15.54;71.06
5691;BME280;2870;42.680;23.364;2023-09-30T04:30:46;95535.59;;;15.38;71.40
5691;BME280;2870;42.680;23.364;2023-09-30T04:33:15;95541.81;;;15.37;74.01
5691;BME280;2870;42.680;23.364;2023-09-30T04:35:43;95534.09;;;15.37;72.62
5691;BME280;2870;42.680;23.364;2023-09-30T04:38:10;95533.91;;;15.35;72.39
5691;BME280;2870;42.680;23.364;2023-09-30T04:40:38;95536.94;;;15.37;72.50
5691;BME280;2870;42.680;23.364;2023-09-30T04:43:05;95537.09;;;15.22;73.05
5691;BME280;2870;42.680;23.364;2023-09-30T04:45:32;95540.75;;;15.15;73.26
5691;BME280;2870;42.680;23.364;2023-09-30T04:47:59;95543.97;;;15.11;73.46
5691;BME280;2870;42.680;23.364;2023-09-30T04:50:28;95542.41;;;15.18;74.54
5691;BME280;2870;42.680;23.364;2023-09-30T04:52:55;95549.28;;;15.25;74.15
5691;BME280;2870;42.680;23.364;2023-09-30T04:55:23;95543.56;;;15.15;73.94
5691;BME280;2870;42.680;23.364;2023-09-30T04:57:50;95552.88;;;15.25;73.93
5691;BME280;2870;42.680;23.364;2023-09-30T05:00:19;95544.72;;;15.29;74.11
5691;BME280;2870;42.680;23.364;2023-09-30T05:02:50;95537.25;;;15.24;73.97
5691;BME280;2870;42.680;23.364;2023-09-30T05:05:17;95548.72;;;15.26;73.43
5691;BME280;2870;42.680;23.364;2023-09-30T05:07:46;95546.81;;;15.29;73.44
5691;BME280;2870;42.680;23.364;2023-09-30T05:10:14;95550.13;;;15.18;73.93
5691;BME280;2870;42.680;23.364;2023-09-30T05:12:42;95559.59;;;15.30;73.88
5691;BME280;2870;42.680;23.364;2023-09-30T05:15:11;95547.91;;;15.33;73.22
5691;BME280;2870;42.680;23.364;2023-09-30T05:17:41;95556.38;;;15.51;74.63
5691;BME280;2870;42.680;23.364;2023-09-30T05:20:09;95565.50;;;15.59;73.79
5691;BME280;2870;42.680;23.364;2023-09-30T05:22:37;95555.53;;;15.58;72.79
5691;BME280;2870;42.680;23.364;2023-09-30T05:25:07;95559.94;;;15.34;73.03
5691;BME280;2870;42.680;23.364;2023-09-30T05:27:34;95559.78;;;15.49;72.10
5691;BME280;2870;42.680;23.364;2023-09-30T05:30:01;95562.94;;;15.71;73.69
5691;BME280;2870;42.680;23.364;2023-09-30T05:32:28;95560.59;;;15.77;71.97
5691;BME280;2870;42.680;23.364;2023-09-30T05:34:56;95563.41;;;15.77;70.72
5691;BME280;2870;42.680;23.364;2023-09-30T05:37:25;95566.56;;;15.98;71.40
5691;BME280;2870;42.680;23.364;2023-09-30T05:39:53;95566.63;;;16.08;71.66
5691;BME280;2870;42.680;23.364;2023-09-30T05:42:21;95577.94;;;16.08;69.72
5691;BME280;2870;42.680;23.364;2023-09-30T05:44:48;95571.09;;;16.11;69.06
5691;BME280;2870;42.680;23.364;2023-09-30T05:47:14;95581.56;;;16.18;69.18
5691;BME280;2870;42.680;23.364;2023-09-30T05:49:41;95577.66;;;16.13;68.35
5691;BME280;2870;42.680;23.364;2023-09-30T05:52:08;95585.84;;;16.36;70.33
5691;BME280;2870;42.680;23.364;2023-09-30T05:54:35;95575.00;;;16.42;68.74
5691;BME280;2870;42.680;23.364;2023-09-30T05:57:02;95574.78;;;16.58;69.72
5691;BME280;2870;42.680;23.364;2023-09-30T05:59:30;95575.72;;;16.70;68.30
5691;BME280;2870;42.680;23.364;2023-09-30T06:01:58;95580.44;;;16.58;68.65
5691;BME280;2870;42.680;23.364;2023-09-30T06:04:24;95580.06;;;16.71;68.90
5691;BME280;2870;42.680;23.364;2023-09-30T06:06:51;95586.38;;;16.89;68.65
5691;BME280;2870;42.680;23.364;2023-09-30T06:09:18;95578.97;;;17.03;68.35
5691;BME280;2870;42.680;23.364;2023-09-30T06:11:46;95587.69;;;17.25;67.77
5691;BME280;2870;42.680;23.364;2023-09-30T06:14:13;95589.16;;;17.26;66.84
5691;BME280;2870;42.680;23.364;2023-09-30T06:16:41;95585.88;;;17.29;67.34
5691;BME280;2870;42.680;23.364;2023-09-30T06:19:08;95602.16;;;17.38;68.53
5691;BME280;2870;42.680;23.364;2023-09-30T06:21:34;95600.53;;;17.55;67.12
5691;BME280;2870;42.680;23.364;2023-09-30T06:24:01;95602.63;;;17.64;65.73
5691;BME280;2870;42.680;23.364;2023-09-30T06:26:28;95606.81;;;17.63;66.02
5691;BME280;2870;42.680;23.364;2023-09-30T06:28:55;95595.19;;;17.78;65.24
5691;BME280;2870;42.680;23.364;2023-09-30T06:31:22;95604.72;;;17.92;64.17
5691;BME280;2870;42.680;23.364;2023-09-30T06:33:51;95567.88;;;17.83;63.73
5691;BME280;2870;42.680;23.364;2023-09-30T06:36:18;95598.44;;;18.23;65.13
5691;BME280;2870;42.680;23.364;2023-09-30T06:38:46;95602.03;;;18.14;61.67
5691;BME280;2870;42.680;23.364;2023-09-30T06:41:16;95611.59;;;18.28;61.66
5691;BME280;2870;42.680;23.364;2023-09-30T06:43:43;95611.53;;;18.47;60.92
5691;BME280;2870;42.680;23.364;2023-09-30T06:46:10;95602.31;;;18.27;60.14
5691;BME280;2870;42.680;23.364;2023-09-30T06:48:39;95606.47;;;18.36;60.20
5691;BME280;2870;42.680;23.364;2023-09-30T06:51:12;95602.56;;;18.92;58.37
5691;BME280;2870;42.680;23.364;2023-09-30T06:53:40;95608.00;;;19.40;58.06
5691;BME280;2870;42.680;23.364;2023-09-30T06:56:07;95606.31;;;19.90;55.88
5691;BME280;2870;42.680;23.364;2023-09-30T06:58:34;95613.84;;;20.51;55.39
5691;BME280;2870;42.680;23.364;2023-09-30T07:01:01;95628.06;;;21.08;51.98
5691;BME280;2870;42.680;23.364;2023-09-30T07:03:27;95626.47;;;21.05;50.68
5691;BME280;2870;42.680;23.364;2023-09-30T07:05:56;95629.91;;;21.74;52.08
5691;BME280;2870;42.680;23.364;2023-09-30T07:08:27;95627.75;;;21.86;48.47
5691;BME280;2870;42.680;23.364;2023-09-30T07:10:55;95627.16;;;22.25;48.53
5691;BME280;2870;42.680;23.364;2023-09-30T07:13:22;95629.69;;;21.95;48.27
5691;BME280;2870;42.680;23.364;2023-09-30T07:15:49;95628.47;;;22.74;46.66
5691;BME280;2870;42.680;23.364;2023-09-30T07:18:16;95633.38;;;23.39;45.46
5691;BME280;2870;42.680;23.364;2023-09-30T07:20:43;95625.72;;;24.42;42.55
5691;BME280;2870;42.680;23.364;2023-09-30T07:23:09;95633.56;;;24.12;41.66
5691;BME280;2870;42.680;23.364;2023-09-30T07:25:40;95627.00;;;24.84;41.50
5691;BME280;2870;42.680;23.364;2023-09-30T07:28:07;95632.63;;;25.11;40.07
5691;BME280;2870;42.680;23.364;2023-09-30T07:30:37;95631.56;;;24.73;39.94
5691;BME280;2870;42.680;23.364;2023-09-30T07:33:04;95635.63;;;25.00;40.68
5691;BME280;2870;42.680;23.364;2023-09-30T07:35:31;95639.50;;;25.70;40.33
5691;BME280;2870;42.680;23.364;2023-09-30T07:37:58;95633.34;;;25.44;38.28
5691;BME280;2870;42.680;23.364;2023-09-30T07:40:25;95631.31;;;25.96;37.99
5691;BME280;2870;42.680;23.364;2023-09-30T07:42:54;95638.75;;;26.19;38.33
5691;BME280;2870;42.680;23.364;2023-09-30T07:45:21;95635.53;;;26.44;36.66
5691;BME280;2870;42.680;23.364;2023-09-30T07:47:48;95638.28;;;26.24;36.52
5691;BME280;2870;42.680;23.364;2023-09-30T07:50:16;95627.06;;;25.47;37.55
5691;BME280;2870;42.680;23.364;2023-09-30T07:52:43;95632.75;;;25.63;37.56
5691;BME280;2870;42.680;23.364;2023-09-30T07:55:10;95641.19;;;26.60;36.31
5691;BME280;2870;42.680;23.364;2023-09-30T07:57:39;95636.97;;;27.36;35.55
5691;BME280;2870;42.680;23.364;2023-09-30T08:00:09;95637.84;;;26.14;36.70
5691;BME280;2870;42.680;23.364;2023-09-30T08:02:40;95646.00;;;26.37;36.47
5691;BME280;2870;42.680;23.364;2023-09-30T08:05:08;95637.72;;;26.81;36.26
5691;BME280;2870;42.680;23.364;2023-09-30T08:07:35;95640.31;;;27.29;35.87
5691;BME280;2870;42.680;23.364;2023-09-30T08:10:02;95643.66;;;26.85;35.02
5691;BME280;2870;42.680;23.364;2023-09-30T08:12:30;95649.09;;;27.53;34.75
5691;BME280;2870;42.680;23.364;2023-09-30T08:14:57;95642.13;;;27.20;34.23
5691;BME280;2870;42.680;23.364;2023-09-30T08:17:25;95645.63;;;27.36;35.49
5691;BME280;2870;42.680;23.364;2023-09-30T08:19:52;95639.75;;;27.14;34.56
5691;BME280;2870;42.680;23.364;2023-09-30T08:22:19;95641.00;;;26.91;35.21
5691;BME280;2870;42.680;23.364;2023-09-30T08:24:46;95634.44;;;26.71;35.44
5691;BME280;2870;42.680;23.364;2023-09-30T08:27:13;95634.88;;;27.19;35.60
5691;BME280;2870;42.680;23.364;2023-09-30T08:29:40;95631.22;;;27.36;35.19
5691;BME280;2870;42.680;23.364;2023-09-30T08:32:06;95633.84;;;28.10;32.75
5691;BME280;2870;42.680;23.364;2023-09-30T08:34:35;95634.22;;;28.42;34.57
5691;BME280;2870;42.680;23.364;2023-09-30T08:37:01;95636.78;;;28.12;33.08
5691;BME280;2870;42.680;23.364;2023-09-30T08:39:29;95640.28;;;28.50;32.45
5691;BME280;2870;42.680;23.364;2023-09-30T08:41:56;95634.84;;;28.60;31.41
5691;BME280;2870;42.680;23.364;2023-09-30T08:44:23;95634.22;;;28.64;31.85
5691;BME280;2870;42.680;23.364;2023-09-30T08:46:50;95630.72;;;29.13;31.68
5691;BME280;2870;42.680;23.364;2023-09-30T08:49:18;95624.81;;;28.41;33.54
5691;BME280;2870;42.680;23.364;2023-09-30T08:51:48;95632.69;;;28.61;33.80
5691;BME280;2870;42.680;23.364;2023-09-30T08:54:16;95622.50;;;28.82;30.31
5691;BME280;2870;42.680;23.364;2023-09-30T08:56:44;95623.91;;;28.81;31.23
5691;BME280;2870;42.680;23.364;2023-09-30T08:59:15;95618.81;;;29.25;30.06
5691;BME280;2870;42.680;23.364;2023-09-30T09:01:42;95624.25;;;29.63;28.94
5691;BME280;2870;42.680;23.364;2023-09-30T09:04:10;95621.13;;;29.54;29.43
5691;BME280;2870;42.680;23.364;2023-09-30T09:06:37;95621.09;;;29.28;28.63
5691;BME280;2870;42.680;23.364;2023-09-30T09:09:23;95611.72;;;29.30;29.78
5691;BME280;2870;42.680;23.364;2023-09-30T09:11:50;95610.41;;;29.59;29.45
5691;BME280;2870;42.680;23.364;2023-09-30T09:14:17;95615.16;;;30.00;28.11
5691;BME280;2870;42.680;23.364;2023-09-30T09:16:54;95618.91;;;30.33;26.95
5691;BME280;2870;42.680;23.364;2023-09-30T09:19:22;95608.84;;;29.30;27.54
5691;BME280;2870;42.680;23.364;2023-09-30T09:21:56;95618.41;;;29.87;28.15
5691;BME280;2870;42.680;23.364;2023-09-30T09:24:31;95588.22;;;29.42;27.19
5691;BME280;2870;42.680;23.364;2023-09-30T09:27:05;95611.78;;;29.82;28.39
5691;BME280;2870;42.680;23.364;2023-09-30T09:29:32;95605.13;;;29.51;27.67
5691;BME280;2870;42.680;23.364;2023-09-30T09:32:12;95602.59;;;29.90;27.92
5691;BME280;2870;42.680;23.364;2023-09-30T09:34:40;95598.28;;;29.91;28.18
5691;BME280;2870;42.680;23.364;2023-09-30T09:37:16;95601.56;;;30.33;27.83
5691;BME280;2870;42.680;23.364;2023-09-30T09:39:53;95593.13;;;29.61;28.18
5691;BME280;2870;42.680;23.364;2023-09-30T09:42:26;95592.16;;;29.52;28.82
5691;BME280;2870;42.680;23.364;2023-09-30T09:44:55;95599.56;;;30.12;28.82
5691;BME280;2870;42.680;23.364;2023-09-30T09:47:23;95595.59;;;29.99;27.25
5691;BME280;2870;42.680;23.364;2023-09-30T09:49:51;95589.94;;;29.77;26.90
5691;BME280;2870;42.680;23.364;2023-09-30T09:52:19;95588.78;;;30.14;26.69
5691;BME280;2870;42.680;23.364;2023-09-30T09:54:46;95584.34;;;30.39;26.14
5691;BME280;2870;42.680;23.364;2023-09-30T09:57:16;95586.31;;;30.30;27.08
5691;BME280;2870;42.680;23.364;2023-09-30T09:59:44;95598.03;;;30.67;26.43
5691;BME280;2870;42.680;23.364;2023-09-30T10:02:13;95592.50;;;30.77;26.30
5691;BME280;2870;42.680;23.364;2023-09-30T10:04:41;95583.13;;;31.10;25.34
5691;BME280;2870;42.680;23.364;2023-09-30T10:07:11;95575.50;;;30.33;25.65
5691;BME280;2870;42.680;23.364;2023-09-30T10:09:41;95581.94;;;30.01;25.86
5691;BME280;2870;42.680;23.364;2023-09-30T10:12:11;95577.06;;;30.38;27.23
5691;BME280;2870;42.680;23.364;2023-09-30T10:14:39;95572.22;;;30.47;27.05
5691;BME280;2870;42.680;23.364;2023-09-30T10:17:06;95571.22;;;30.96;27.92
5691;BME280;2870;42.680;23.364;2023-09-30T10:19:32;95562.09;;;30.76;25.57
5691;BME280;2870;42.680;23.364;2023-09-30T10:22:21;95542.47;;;29.86;25.96
5691;BME280;2870;42.680;23.364;2023-09-30T10:24:50;95569.38;;;30.79;24.82
5691;BME280;2870;42.680;23.364;2023-09-30T10:27:33;95562.50;;;31.28;24.29
5691;BME280;2870;42.680;23.364;2023-09-30T10:30:13;95552.59;;;31.39;23.36
5691;BME280;2870;42.680;23.364;2023-09-30T10:33:09;95556.28;;;30.76;24.48
5691;BME280;2870;42.680;23.364;2023-09-30T10:35:46;95549.25;;;30.55;24.60
5691;BME280;2870;42.680;23.364;2023-09-30T10:38:40;95544.84;;;30.22;24.50
5691;BME280;2870;42.680;23.364;2023-09-30T10:41:08;95547.56;;;29.10;25.52
5691;BME280;2870;42.680;23.364;2023-09-30T10:43:36;95539.56;;;29.58;25.37
5691;BME280;2870;42.680;23.364;2023-09-30T10:46:31;95541.72;;;29.58;25.03
5691;BME280;2870;42.680;23.364;2023-09-30T10:49:31;95534.22;;;29.22;25.44
5691;BME280;2870;42.680;23.364;2023-09-30T10:51:59;95524.34;;;28.82;26.35
5691;BME280;2870;42.680;23.364;2023-09-30T10:54:27;95535.09;;;29.03;26.85
5691;BME280;2870;42.680;23.364;2023-09-30T10:56:55;95533.63;;;28.78;25.61
5691;BME280;2870;42.680;23.364;2023-09-30T10:59:25;95529.84;;;28.95;25.67
5691;BME280;2870;42.680;23.364;2023-09-30T11:01:53;95532.78;;;28.97;25.84
5691;BME280;2870;42.680;23.364;2023-09-30T11:04:20;95529.22;;;28.99;25.73
5691;BME280;2870;42.680;23.364;2023-09-30T11:06:47;95524.34;;;28.82;26.67
5691;BME280;2870;42.680;23.364;2023-09-30T11:09:18;95521.91;;;28.72;26.17
5691;BME280;2870;42.680;23.364;2023-09-30T11:11:46;95524.84;;;28.28;26.17
5691;BME280;2870;42.680;23.364;2023-09-30T11:14:22;95510.91;;;28.42;26.15
5691;BME280;2870;42.680;23.364;2023-09-30T11:16:50;95513.13;;;28.22;26.52
5691;BME280;2870;42.680;23.364;2023-09-30T11:19:19;95509.72;;;28.06;26.21
5691;BME280;2870;42.680;23.364;2023-09-30T11:21:48;95509.44;;;28.19;26.92
5691;BME280;2870;42.680;23.364;2023-09-30T11:24:15;95510.84;;;28.40;26.31
5691;BME280;2870;42.680;23.364;2023-09-30T11:26:42;95510.59;;;27.88;27.29
5691;BME280;2870;42.680;23.364;2023-09-30T11:29:11;95505.31;;;27.61;27.36
5691;BME280;2870;42.680;23.364;2023-09-30T11:31:39;95491.53;;;27.37;27.69
5691;BME280;2870;42.680;23.364;2023-09-30T11:34:07;95499.06;;;27.27;27.91
5691;BME280;2870;42.680;23.364;2023-09-30T11:36:36;95495.75;;;27.34;27.93
5691;BME280;2870;42.680;23.364;2023-09-30T11:39:04;95495.97;;;27.20;28.14
5691;BME280;2870;42.680;23.364;2023-09-30T11:41:35;95498.53;;;27.52;27.91
5691;BME280;2870;42.680;23.364;2023-09-30T11:44:05;95496.19;;;27.46;28.06
5691;BME280;2870;42.680;23.364;2023-09-30T11:46:33;95493.94;;;27.45;27.66
5691;BME280;2870;42.680;23.364;2023-09-30T11:49:27;95484.84;;;27.11;28.69
5691;BME280;2870;42.680;23.364;2023-09-30T11:51:56;95493.50;;;27.53;28.48
5691;BME280;2870;42.680;23.364;2023-09-30T11:54:29;95489.25;;;26.94;28.97
5691;BME280;2870;42.680;23.364;2023-09-30T11:56:57;95476.25;;;26.93;29.33
5691;BME280;2870;42.680;23.364;2023-09-30T11:59:24;95466.06;;;27.30;28.99
5691;BME280;2870;42.680;23.364;2023-09-30T12:01:51;95478.03;;;27.22;29.13
5691;BME280;2870;42.680;23.364;2023-09-30T12:04:18;95472.72;;;27.34;28.54
5691;BME280;2870;42.680;23.364;2023-09-30T12:06:45;95463.41;;;27.16;29.68
5691;BME280;2870;42.680;23.364;2023-09-30T12:09:14;95464.00;;;27.32;29.16
5691;BME280;2870;42.680;23.364;2023-09-30T12:11:47;95461.94;;;27.15;28.18
5691;BME280;2870;42.680;23.364;2023-09-30T12:14:14;95456.50;;;26.83;29.28
5691;BME280;2870;42.680;23.364;2023-09-30T12:16:41;95460.16;;;26.66;29.14
5691;BME280;2870;42.680;23.364;2023-09-30T12:19:10;95457.13;;;26.62;28.94
5691;BME280;2870;42.680;23.364;2023-09-30T12:21:39;95408.28;;;26.44;29.02
5691;BME280;2870;42.680;23.364;2023-09-30T12:24:06;95438.25;;;26.57;29.03
5691;BME280;2870;42.680;23.364;2023-09-30T12:26:34;95441.03;;;26.17;29.95
5691;BME280;2870;42.680;23.364;2023-09-30T12:29:01;95438.63;;;26.67;29.25
5691;BME280;2870;42.680;23.364;2023-09-30T12:31:28;95435.81;;;26.69;29.34
5691;BME280;2870;42.680;23.364;2023-09-30T12:33:55;95432.28;;;26.90;29.26
5691;BME280;2870;42.680;23.364;2023-09-30T12:36:22;95438.75;;;26.71;29.36
5691;BME280;2870;42.680;23.364;2023-09-30T12:38:50;95437.94;;;26.68;29.51
5691;BME280;2870;42.680;23.364;2023-09-30T12:41:16;95429.31;;;26.68;28.96
5691;BME280;2870;42.680;23.364;2023-09-30T12:43:46;95429.78;;;26.61;29.27
5691;BME280;2870;42.680;23.364;2023-09-30T12:46:12;95431.53;;;26.50;29.81
5691;BME280;2870;42.680;23.364;2023-09-30T12:48:39;95430.72;;;26.67;29.99
5691;BME280;2870;42.680;23.364;2023-09-30T12:51:06;95418.47;;;26.67;29.47
5691;BME280;2870;42.680;23.364;2023-09-30T12:53:35;95422.50;;;26.60;29.73
5691;BME280;2870;42.680;23.364;2023-09-30T12:56:02;95415.34;;;26.41;29.64
5691;BME280;2870;42.680;23.364;2023-09-30T12:58:29;95419.22;;;26.67;29.40
5691;BME280;2870;42.680;23.364;2023-09-30T13:00:57;95418.56;;;26.89;29.49
5691;BME280;2870;42.680;23.364;2023-09-30T13:03:24;95416.63;;;26.76;29.40
5691;BME280;2870;42.680;23.364;2023-09-30T13:05:51;95403.94;;;26.63;29.09
5691;BME280;2870;42.680;23.364;2023-09-30T13:08:19;95405.69;;;26.92;28.99
5691;BME280;2870;42.680;23.364;2023-09-30T13:10:46;95414.19;;;27.08;29.03
5691;BME280;2870;42.680;23.364;2023-09-30T13:13:15;95413.13;;;26.39;29.52
5691;BME280;2870;42.680;23.364;2023-09-30T13:15:42;95405.63;;;26.70;29.68
5691;BME280;2870;42.680;23.364;2023-09-30T13:18:11;95395.66;;;26.33;29.52